< < Back
Terminal Aerodrome Forecast


Current Version              Previous Versions:   1  2  3  4  5  6  7  8  9  

Terminal Aerodrome Forecast

248
FTUS42 KTAE 021300 AAA
TAFVLD
TAF AMD
KVLD 021326Z 0213/0312 04003KT 6SM BR SCT030
     FM021400 10005KT P6SM SCT050 BKN250
     FM030900 16002KT 6SM BR SCT015=

Latest METAR

639
SAUS70 KWBC 021600 RRG
MTRVLD
METAR KVLD 021553Z 36003KT 10SM BKN026 BKN033 27/21 A3009 RMK AO2 SLP194
T02720206


USA.gov is the U.S. government's official web portal to all federal, state and local government web resources and services.